Flight Track Log - Related Links

Times and Time Zones

All times are in EDT time to prevent confusion due to time zone crossing. See the N4118B flight status page for this flight to view local times or setup timezone preferences in your user account.


Time Position Orientation Groundspeed Altitude Reporting Facility
EDT Latitude Longitude Course Direction KTS MPH feet Rate Location/Type
Wed 02:22:45 PM 35.7814 -84.0892 263° West 106 122 3,500  Level Memphis Center
Wed 02:23:47 PM 35.7775 -84.1267 263° West 107 123 4,200 435 Climbing Memphis Center
Wed 02:24:49 PM 35.7744 -84.1694 265° West 116 133 4,400 290 Climbing Memphis Center
Wed 02:25:51 PM 35.7753 -84.2233 271° West 142 163 4,800 629 Climbing Memphis Center
Wed 02:26:53 PM 35.7664 -84.2814 259° West 147 169 5,700 774 Climbing Memphis Center
Wed 02:27:55 PM 35.7592 -84.3236 258° West 136 157 6,400 387 Climbing Memphis Center
Wed 02:28:57 PM 35.7492 -84.3681 255° West 132 152 6,500 48 Climbing Memphis Center
Wed 02:29:59 PM 35.7394 -84.4183 257° West 140 161 6,500  Level Memphis Center
Wed 02:31:01 PM 35.7300 -84.4694 257° West 146 168 6,500  Level Memphis Center
Wed 02:32:03 PM 35.7194 -84.5192 255° West 147 169 6,500 48 Level Memphis Center
Wed 02:33:06 PM 35.7047 -84.5792 253° West 149 171 6,600 62 Climbing Memphis Center
Wed 02:33:40 PM 35.7003 -84.6039 258° West 156 180 6,600  Level Atlanta Center
Wed 02:34:40 PM 35.6875 -84.6550 253° West 161 185 6,600  Level Atlanta Center
Wed 02:35:40 PM 35.6769 -84.7061 256° West 161 185 6,600 -50 Level Atlanta Center
Wed 02:36:40 PM 35.6642 -84.7569 253° West 161 185 6,500  Descending Atlanta Center
Wed 02:37:40 PM 35.6533 -84.8081 255° West 161 185 6,600 50 Climbing Atlanta Center
Wed 02:38:40 PM 35.6406 -84.8592 253° West 161 185 6,600 -50 Level Atlanta Center
Wed 02:39:40 PM 35.6297 -84.9075 255° West 161 185 6,500  Descending Atlanta Center
Wed 02:40:40 PM 35.6189 -84.9611 256° West 161 185 6,600  Climbing Atlanta Center
Wed 02:42:24 PM 35.5981 -85.0508 254° West 153 176 6,500 -36 Descending Memphis Center
Wed 02:43:27 PM 35.5858 -85.1025 254° West 154 177 6,500  Level Memphis Center
Wed 02:44:29 PM 35.5750 -85.1528 255° West 154 177 6,500  Level Memphis Center
Wed 02:45:31 PM 35.5647 -85.2056 257° West 154 177 6,500  Level Memphis Center
Wed 02:46:33 PM 35.5539 -85.2581 256° West 155 178 6,500 -48 Level Memphis Center
Wed 02:47:35 PM 35.5356 -85.3178 249° West 155 178 6,400 -48 Descending Memphis Center
Wed 02:48:37 PM 35.5231 -85.3664 252° West 156 180 6,400  Level Memphis Center
Wed 02:49:39 PM 35.5122 -85.4156 255° West 155 178 6,400  Level Memphis Center
Wed 02:50:41 PM 35.5003 -85.4656 254° West 153 176 6,400  Level Memphis Center
Wed 02:51:43 PM 35.4894 -85.5169 255° West 154 177 6,400  Level Memphis Center
Wed 02:52:45 PM 35.4781 -85.5703 255° West 156 180 6,400 48 Level Memphis Center
Wed 02:53:48 PM 35.4656 -85.6306 256° West 156 180 6,500  Climbing Memphis Center
Wed 02:54:50 PM 35.4547 -85.6833 256° West 156 180 6,400 -48 Descending Memphis Center
Wed 02:55:52 PM 35.4433 -85.7350 255° West 156 180 6,400  Level Memphis Center
Wed 02:56:54 PM 35.4319 -85.7897 256° West 162 186 6,400  Level Memphis Center
Wed 02:57:56 PM 35.4211 -85.8406 255° West 159 183 6,400  Level Memphis Center
Wed 02:58:58 PM 35.4111 -85.8925 257° West 159 183 6,400  Level Memphis Center
Wed 03:00:00 PM 35.3983 -85.9567 256° West 160 184 6,400  Level Memphis Center
Wed 03:01:02 PM 35.3894 -86.0086 258° West 160 184 6,400 48 Level Memphis Center
Wed 03:02:04 PM 35.3800 -86.0600 257° West 159 183 6,500  Climbing Memphis Center
Wed 03:03:06 PM 35.3711 -86.1133 258° West 159 183 6,400 -48 Descending Memphis Center
Wed 03:04:09 PM 35.3617 -86.1664 258° West 159 183 6,400  Level Memphis Center
Wed 03:05:11 PM 35.3511 -86.2225 257° West 159 183 6,400  Level Memphis Center
Wed 03:06:13 PM 35.3431 -86.2767 260° West 159 183 6,400 48 Level Memphis Center
Wed 03:07:15 PM 35.3317 -86.3281 255° West 159 183 6,500  Climbing Memphis Center
Wed 03:08:17 PM 35.3203 -86.3786 255° West 157 181 6,400 -48 Descending Memphis Center
Wed 03:09:19 PM 35.3086 -86.4292 254° West 156 180 6,400  Level Memphis Center
Wed 03:10:21 PM 35.2931 -86.4872 252° West 154 177 6,400  Level Memphis Center
Wed 03:11:23 PM 35.2794 -86.5381 252° West 154 177 6,400 -97 Level Memphis Center
Wed 03:12:25 PM 35.2675 -86.5858 253° West 150 173 6,200 -387 Descending Memphis Center
Wed 03:13:27 PM 35.2544 -86.6356 252° West 150 173 5,600 -581 Descending Memphis Center
Wed 03:14:29 PM 35.2417 -86.6856 253° West 150 173 5,000 -720 Descending Memphis Center
Wed 03:15:32 PM 35.2275 -86.7372 251° West 153 176 4,100 -768 Descending Memphis Center
Wed 03:16:34 PM 35.2131 -86.7894 251° West 157 181 3,400 -677 Descending Memphis Center

Login

Don't have an account? Register now (free) for customized features, flight alerts, and more!